sensor_id;sensor_type;location;lat;lon;timestamp;P1;durP1;ratioP1;P2;durP2;ratioP2
41653;SDS011;68687;52.030;7.110;2023-11-22T00:01:17;24.58;;;13.98;;
41653;SDS011;68687;52.030;7.110;2023-11-22T00:03:43;26.38;;;15.23;;
41653;SDS011;68687;52.030;7.110;2023-11-22T00:06:12;27.23;;;15.43;;
41653;SDS011;68687;52.030;7.110;2023-11-22T00:08:37;29.17;;;15.70;;
41653;SDS011;68687;52.030;7.110;2023-11-22T00:11:03;24.00;;;15.07;;
41653;SDS011;68687;52.030;7.110;2023-11-22T00:13:28;24.38;;;14.65;;
41653;SDS011;68687;52.030;7.110;2023-11-22T00:15:54;27.70;;;16.25;;
41653;SDS011;68687;52.030;7.110;2023-11-22T00:18:19;25.83;;;15.18;;
41653;SDS011;68687;52.030;7.110;2023-11-22T00:20:45;27.73;;;15.80;;
41653;SDS011;68687;52.030;7.110;2023-11-22T00:23:13;27.40;;;15.68;;
41653;SDS011;68687;52.030;7.110;2023-11-22T00:25:38;25.58;;;15.48;;
41653;SDS011;68687;52.030;7.110;2023-11-22T00:28:03;23.73;;;14.13;;
41653;SDS011;68687;52.030;7.110;2023-11-22T00:30:34;28.13;;;15.98;;
41653;SDS011;68687;52.030;7.110;2023-11-22T00:33:02;22.90;;;14.73;;
41653;SDS011;68687;52.030;7.110;2023-11-22T00:35:27;25.77;;;15.32;;
41653;SDS011;68687;52.030;7.110;2023-11-22T00:37:52;24.15;;;14.73;;
41653;SDS011;68687;52.030;7.110;2023-11-22T00:40:18;26.45;;;14.93;;
41653;SDS011;68687;52.030;7.110;2023-11-22T00:42:44;25.40;;;14.25;;
41653;SDS011;68687;52.030;7.110;2023-11-22T00:45:09;24.75;;;15.60;;
41653;SDS011;68687;52.030;7.110;2023-11-22T00:47:35;26.38;;;15.27;;
41653;SDS011;68687;52.030;7.110;2023-11-22T00:50:01;25.83;;;14.32;;
41653;SDS011;68687;52.030;7.110;2023-11-22T00:52:29;25.10;;;14.43;;
41653;SDS011;68687;52.030;7.110;2023-11-22T00:54:55;24.17;;;14.65;;
41653;SDS011;68687;52.030;7.110;2023-11-22T00:57:20;25.33;;;14.73;;
41653;SDS011;68687;52.030;7.110;2023-11-22T00:59:45;26.08;;;15.02;;
41653;SDS011;68687;52.030;7.110;2023-11-22T01:02:14;22.95;;;13.60;;
41653;SDS011;68687;52.030;7.110;2023-11-22T01:04:39;25.40;;;14.57;;
41653;SDS011;68687;52.030;7.110;2023-11-22T01:07:05;28.40;;;15.40;;
41653;SDS011;68687;52.030;7.110;2023-11-22T01:09:30;25.00;;;15.40;;
41653;SDS011;68687;52.030;7.110;2023-11-22T01:11:57;24.73;;;13.88;;
41653;SDS011;68687;52.030;7.110;2023-11-22T01:14:22;25.27;;;15.07;;
41653;SDS011;68687;52.030;7.110;2023-11-22T01:16:50;27.70;;;14.35;;
41653;SDS011;68687;52.030;7.110;2023-11-22T01:19:16;26.60;;;15.55;;
41653;SDS011;68687;52.030;7.110;2023-11-22T01:21:41;25.85;;;14.68;;
41653;SDS011;68687;52.030;7.110;2023-11-22T01:24:06;28.45;;;14.90;;
41653;SDS011;68687;52.030;7.110;2023-11-22T01:26:32;26.17;;;14.75;;
41653;SDS011;68687;52.030;7.110;2023-11-22T01:28:57;27.02;;;14.43;;
41653;SDS011;68687;52.030;7.110;2023-11-22T01:31:25;24.23;;;13.35;;
41653;SDS011;68687;52.030;7.110;2023-11-22T01:33:52;26.90;;;14.38;;
41653;SDS011;68687;52.030;7.110;2023-11-22T01:36:17;24.35;;;14.30;;
41653;SDS011;68687;52.030;7.110;2023-11-22T01:38:43;22.45;;;14.52;;
41653;SDS011;68687;52.030;7.110;2023-11-22T01:41:09;26.05;;;14.15;;
41653;SDS011;68687;52.030;7.110;2023-11-22T01:43:37;24.48;;;14.30;;
41653;SDS011;68687;52.030;7.110;2023-11-22T01:46:04;23.92;;;14.73;;
41653;SDS011;68687;52.030;7.110;2023-11-22T01:48:30;25.92;;;15.07;;
41653;SDS011;68687;52.030;7.110;2023-11-22T01:50:57;24.73;;;15.25;;
41653;SDS011;68687;52.030;7.110;2023-11-22T01:53:22;25.58;;;14.75;;
41653;SDS011;68687;52.030;7.110;2023-11-22T01:55:49;28.20;;;13.75;;
41653;SDS011;68687;52.030;7.110;2023-11-22T01:58:14;23.40;;;14.02;;
41653;SDS011;68687;52.030;7.110;2023-11-22T02:00:42;26.95;;;14.98;;
41653;SDS011;68687;52.030;7.110;2023-11-22T02:03:13;25.67;;;13.65;;
41653;SDS011;68687;52.030;7.110;2023-11-22T02:05:39;28.95;;;15.00;;
41653;SDS011;68687;52.030;7.110;2023-11-22T02:08:08;25.30;;;14.18;;
41653;SDS011;68687;52.030;7.110;2023-11-22T02:10:34;24.08;;;14.82;;
41653;SDS011;68687;52.030;7.110;2023-11-22T02:13:01;22.20;;;13.48;;
41653;SDS011;68687;52.030;7.110;2023-11-22T02:15:29;24.92;;;15.15;;
41653;SDS011;68687;52.030;7.110;2023-11-22T02:17:55;23.58;;;14.60;;
41653;SDS011;68687;52.030;7.110;2023-11-22T02:20:20;23.55;;;14.32;;
41653;SDS011;68687;52.030;7.110;2023-11-22T02:22:46;26.17;;;14.73;;
41653;SDS011;68687;52.030;7.110;2023-11-22T02:25:15;25.55;;;14.75;;
41653;SDS011;68687;52.030;7.110;2023-11-22T02:27:41;23.25;;;14.82;;
41653;SDS011;68687;52.030;7.110;2023-11-22T02:30:07;24.85;;;15.45;;
41653;SDS011;68687;52.030;7.110;2023-11-22T02:32:33;27.95;;;15.65;;
41653;SDS011;68687;52.030;7.110;2023-11-22T02:34:58;24.85;;;14.93;;
41653;SDS011;68687;52.030;7.110;2023-11-22T02:37:24;23.92;;;14.10;;
41653;SDS011;68687;52.030;7.110;2023-11-22T02:40:06;26.42;;;14.35;;
41653;SDS011;68687;52.030;7.110;2023-11-22T02:42:39;25.00;;;14.32;;
41653;SDS011;68687;52.030;7.110;2023-11-22T02:45:04;24.77;;;13.60;;
41653;SDS011;68687;52.030;7.110;2023-11-22T02:47:30;24.50;;;14.73;;
41653;SDS011;68687;52.030;7.110;2023-11-22T02:49:56;24.25;;;14.32;;
41653;SDS011;68687;52.030;7.110;2023-11-22T02:52:21;25.65;;;15.00;;
41653;SDS011;68687;52.030;7.110;2023-11-22T02:54:47;28.25;;;14.98;;
41653;SDS011;68687;52.030;7.110;2023-11-22T02:57:12;30.70;;;14.80;;
41653;SDS011;68687;52.030;7.110;2023-11-22T02:59:41;26.67;;;14.93;;
41653;SDS011;68687;52.030;7.110;2023-11-22T03:02:07;30.52;;;14.50;;
41653;SDS011;68687;52.030;7.110;2023-11-22T03:04:32;27.08;;;15.13;;
41653;SDS011;68687;52.030;7.110;2023-11-22T03:06:58;26.83;;;15.00;;
41653;SDS011;68687;52.030;7.110;2023-11-22T03:09:24;28.40;;;15.00;;
41653;SDS011;68687;52.030;7.110;2023-11-22T03:11:51;27.67;;;14.75;;
41653;SDS011;68687;52.030;7.110;2023-11-22T03:14:16;27.90;;;14.50;;
41653;SDS011;68687;52.030;7.110;2023-11-22T03:16:42;32.20;;;15.85;;
41653;SDS011;68687;52.030;7.110;2023-11-22T03:19:07;27.77;;;16.40;;
41653;SDS011;68687;52.030;7.110;2023-11-22T03:21:33;26.95;;;14.32;;
41653;SDS011;68687;52.030;7.110;2023-11-22T03:24:00;28.27;;;14.70;;
41653;SDS011;68687;52.030;7.110;2023-11-22T03:26:28;34.13;;;14.75;;
41653;SDS011;68687;52.030;7.110;2023-11-22T03:28:56;27.70;;;14.55;;
41653;SDS011;68687;52.030;7.110;2023-11-22T03:31:22;28.88;;;14.73;;
41653;SDS011;68687;52.030;7.110;2023-11-22T03:33:47;26.58;;;14.60;;
41653;SDS011;68687;52.030;7.110;2023-11-22T03:36:12;25.60;;;14.55;;
41653;SDS011;68687;52.030;7.110;2023-11-22T03:38:40;32.53;;;16.25;;
41653;SDS011;68687;52.030;7.110;2023-11-22T03:41:06;31.65;;;15.68;;
41653;SDS011;68687;52.030;7.110;2023-11-22T03:43:31;29.65;;;16.30;;
41653;SDS011;68687;52.030;7.110;2023-11-22T03:45:56;29.35;;;15.63;;
41653;SDS011;68687;52.030;7.110;2023-11-22T03:48:24;28.13;;;15.27;;
41653;SDS011;68687;52.030;7.110;2023-11-22T03:50:51;33.28;;;17.67;;
41653;SDS011;68687;52.030;7.110;2023-11-22T03:53:16;33.10;;;14.70;;
41653;SDS011;68687;52.030;7.110;2023-11-22T03:55:41;34.95;;;15.23;;
41653;SDS011;68687;52.030;7.110;2023-11-22T03:58:10;34.10;;;14.40;;
41653;SDS011;68687;52.030;7.110;2023-11-22T04:00:35;40.95;;;14.88;;
41653;SDS011;68687;52.030;7.110;2023-11-22T04:03:00;44.47;;;14.65;;
41653;SDS011;68687;52.030;7.110;2023-11-22T04:05:26;33.08;;;14.45;;
41653;SDS011;68687;52.030;7.110;2023-11-22T04:07:52;45.67;;;13.40;;
41653;SDS011;68687;52.030;7.110;2023-11-22T04:10:17;24.45;;;14.18;;
41653;SDS011;68687;52.030;7.110;2023-11-22T04:12:44;23.75;;;12.32;;
41653;SDS011;68687;52.030;7.110;2023-11-22T04:15:09;23.58;;;13.48;;
41653;SDS011;68687;52.030;7.110;2023-11-22T04:17:35;21.30;;;13.48;;
41653;SDS011;68687;52.030;7.110;2023-11-22T04:20:02;26.48;;;13.98;;
41653;SDS011;68687;52.030;7.110;2023-11-22T04:22:31;24.27;;;14.10;;
41653;SDS011;68687;52.030;7.110;2023-11-22T04:24:59;27.52;;;14.00;;
41653;SDS011;68687;52.030;7.110;2023-11-22T04:27:24;25.02;;;14.13;;
41653;SDS011;68687;52.030;7.110;2023-11-22T04:29:49;22.67;;;13.57;;
41653;SDS011;68687;52.030;7.110;2023-11-22T04:32:15;24.60;;;14.00;;
41653;SDS011;68687;52.030;7.110;2023-11-22T04:34:40;24.95;;;14.20;;
41653;SDS011;68687;52.030;7.110;2023-11-22T04:37:05;25.85;;;13.23;;
41653;SDS011;68687;52.030;7.110;2023-11-22T04:39:31;21.17;;;12.13;;
41653;SDS011;68687;52.030;7.110;2023-11-22T04:41:56;23.30;;;13.60;;
41653;SDS011;68687;52.030;7.110;2023-11-22T04:44:22;25.20;;;13.00;;
41653;SDS011;68687;52.030;7.110;2023-11-22T04:46:47;21.45;;;12.77;;
41653;SDS011;68687;52.030;7.110;2023-11-22T04:49:12;23.90;;;13.05;;
41653;SDS011;68687;52.030;7.110;2023-11-22T04:51:38;19.95;;;11.95;;
41653;SDS011;68687;52.030;7.110;2023-11-22T04:54:06;20.02;;;12.55;;
41653;SDS011;68687;52.030;7.110;2023-11-22T04:56:32;21.17;;;12.32;;
41653;SDS011;68687;52.030;7.110;2023-11-22T04:58:57;19.88;;;11.40;;
41653;SDS011;68687;52.030;7.110;2023-11-22T05:01:23;21.83;;;12.95;;
41653;SDS011;68687;52.030;7.110;2023-11-22T05:03:50;20.13;;;12.88;;
41653;SDS011;68687;52.030;7.110;2023-11-22T05:06:15;21.27;;;12.80;;
41653;SDS011;68687;52.030;7.110;2023-11-22T05:08:41;19.85;;;12.52;;
41653;SDS011;68687;52.030;7.110;2023-11-22T05:11:07;18.70;;;11.90;;
41653;SDS011;68687;52.030;7.110;2023-11-22T05:13:32;16.50;;;11.07;;
41653;SDS011;68687;52.030;7.110;2023-11-22T05:15:58;17.55;;;11.38;;
41653;SDS011;68687;52.030;7.110;2023-11-22T05:18:23;18.58;;;12.10;;
41653;SDS011;68687;52.030;7.110;2023-11-22T05:20:48;18.23;;;12.35;;
41653;SDS011;68687;52.030;7.110;2023-11-22T05:23:14;42.05;;;17.38;;
41653;SDS011;68687;52.030;7.110;2023-11-22T05:25:39;21.35;;;12.68;;
41653;SDS011;68687;52.030;7.110;2023-11-22T05:28:04;23.63;;;13.50;;
41653;SDS011;68687;52.030;7.110;2023-11-22T05:30:29;31.77;;;15.90;;
41653;SDS011;68687;52.030;7.110;2023-11-22T05:32:55;26.35;;;14.30;;
41653;SDS011;68687;52.030;7.110;2023-11-22T05:35:21;23.55;;;12.95;;
41653;SDS011;68687;52.030;7.110;2023-11-22T05:37:49;30.52;;;15.98;;
41653;SDS011;68687;52.030;7.110;2023-11-22T05:40:14;35.15;;;16.52;;
41653;SDS011;68687;52.030;7.110;2023-11-22T05:42:41;34.05;;;18.13;;
41653;SDS011;68687;52.030;7.110;2023-11-22T05:45:06;30.73;;;16.73;;
41653;SDS011;68687;52.030;7.110;2023-11-22T05:47:32;25.23;;;13.98;;
41653;SDS011;68687;52.030;7.110;2023-11-22T05:49:58;25.08;;;13.85;;
41653;SDS011;68687;52.030;7.110;2023-11-22T05:52:23;21.08;;;14.55;;
41653;SDS011;68687;52.030;7.110;2023-11-22T05:54:49;19.35;;;12.77;;
41653;SDS011;68687;52.030;7.110;2023-11-22T05:57:14;18.42;;;13.18;;
41653;SDS011;68687;52.030;7.110;2023-11-22T05:59:40;22.92;;;13.82;;
41653;SDS011;68687;52.030;7.110;2023-11-22T06:02:05;23.13;;;14.95;;
41653;SDS011;68687;52.030;7.110;2023-11-22T06:04:31;27.25;;;15.10;;
41653;SDS011;68687;52.030;7.110;2023-11-22T06:06:56;24.40;;;14.65;;
41653;SDS011;68687;52.030;7.110;2023-11-22T06:09:21;25.23;;;14.32;;
41653;SDS011;68687;52.030;7.110;2023-11-22T06:11:48;24.50;;;15.20;;
41653;SDS011;68687;52.030;7.110;2023-11-22T06:14:13;22.75;;;12.93;;
41653;SDS011;68687;52.030;7.110;2023-11-22T06:16:41;23.25;;;14.52;;
41653;SDS011;68687;52.030;7.110;2023-11-22T06:19:09;22.77;;;14.48;;
41653;SDS011;68687;52.030;7.110;2023-11-22T06:21:35;21.08;;;14.05;;
41653;SDS011;68687;52.030;7.110;2023-11-22T06:24:01;19.95;;;14.80;;
41653;SDS011;68687;52.030;7.110;2023-11-22T06:26:28;22.42;;;15.27;;
41653;SDS011;68687;52.030;7.110;2023-11-22T06:28:53;22.85;;;14.32;;
41653;SDS011;68687;52.030;7.110;2023-11-22T06:31:20;19.60;;;13.70;;
41653;SDS011;68687;52.030;7.110;2023-11-22T06:33:46;18.55;;;13.15;;
41653;SDS011;68687;52.030;7.110;2023-11-22T06:36:11;19.58;;;13.25;;
41653;SDS011;68687;52.030;7.110;2023-11-22T06:38:38;20.80;;;13.43;;
41653;SDS011;68687;52.030;7.110;2023-11-22T06:41:03;18.42;;;12.77;;
41653;SDS011;68687;52.030;7.110;2023-11-22T06:43:28;21.77;;;12.80;;
41653;SDS011;68687;52.030;7.110;2023-11-22T06:45:54;20.35;;;13.48;;
41653;SDS011;68687;52.030;7.110;2023-11-22T06:48:19;22.23;;;13.43;;
41653;SDS011;68687;52.030;7.110;2023-11-22T06:50:44;18.85;;;13.52;;
41653;SDS011;68687;52.030;7.110;2023-11-22T06:53:10;19.42;;;12.98;;
41653;SDS011;68687;52.030;7.110;2023-11-22T06:55:36;19.75;;;11.98;;
41653;SDS011;68687;52.030;7.110;2023-11-22T06:58:03;18.88;;;11.82;;
41653;SDS011;68687;52.030;7.110;2023-11-22T07:00:33;17.85;;;11.18;;
41653;SDS011;68687;52.030;7.110;2023-11-22T07:02:58;18.35;;;11.55;;
41653;SDS011;68687;52.030;7.110;2023-11-22T07:05:29;17.83;;;11.48;;
41653;SDS011;68687;52.030;7.110;2023-11-22T07:07:55;16.85;;;11.27;;
41653;SDS011;68687;52.030;7.110;2023-11-22T07:10:20;18.55;;;12.35;;
41653;SDS011;68687;52.030;7.110;2023-11-22T07:12:49;16.92;;;11.43;;
41653;SDS011;68687;52.030;7.110;2023-11-22T07:15:14;15.20;;;10.07;;
41653;SDS011;68687;52.030;7.110;2023-11-22T07:17:39;19.73;;;11.48;;
41653;SDS011;68687;52.030;7.110;2023-11-22T07:20:05;15.00;;;10.07;;
41653;SDS011;68687;52.030;7.110;2023-11-22T07:22:34;17.55;;;11.25;;
41653;SDS011;68687;52.030;7.110;2023-11-22T07:25:00;19.60;;;12.35;;
41653;SDS011;68687;52.030;7.110;2023-11-22T07:27:30;19.13;;;11.73;;
41653;SDS011;68687;52.030;7.110;2023-11-22T07:29:56;18.02;;;11.65;;
41653;SDS011;68687;52.030;7.110;2023-11-22T07:32:22;16.88;;;11.73;;
41653;SDS011;68687;52.030;7.110;2023-11-22T07:34:47;20.85;;;13.63;;
41653;SDS011;68687;52.030;7.110;2023-11-22T07:37:12;20.05;;;13.30;;
41653;SDS011;68687;52.030;7.110;2023-11-22T07:39:39;18.83;;;11.90;;
41653;SDS011;68687;52.030;7.110;2023-11-22T07:42:05;25.02;;;13.70;;
41653;SDS011;68687;52.030;7.110;2023-11-22T07:44:34;27.67;;;17.15;;
41653;SDS011;68687;52.030;7.110;2023-11-22T07:47:02;29.30;;;16.33;;
41653;SDS011;68687;52.030;7.110;2023-11-22T07:49:28;34.47;;;18.45;;
41653;SDS011;68687;52.030;7.110;2023-11-22T07:51:54;33.67;;;17.65;;
41653;SDS011;68687;52.030;7.110;2023-11-22T07:54:21;23.42;;;14.00;;
41653;SDS011;68687;52.030;7.110;2023-11-22T07:56:47;26.40;;;14.45;;
41653;SDS011;68687;52.030;7.110;2023-11-22T07:59:13;20.83;;;12.50;;
41653;SDS011;68687;52.030;7.110;2023-11-22T08:01:39;23.25;;;13.50;;
41653;SDS011;68687;52.030;7.110;2023-11-22T08:04:08;27.00;;;12.90;;
41653;SDS011;68687;52.030;7.110;2023-11-22T08:06:34;20.88;;;12.95;;
41653;SDS011;68687;52.030;7.110;2023-11-22T08:09:00;21.63;;;13.60;;
41653;SDS011;68687;52.030;7.110;2023-11-22T08:11:26;24.10;;;14.05;;
41653;SDS011;68687;52.030;7.110;2023-11-22T08:13:52;27.83;;;14.02;;
41653;SDS011;68687;52.030;7.110;2023-11-22T08:16:23;20.92;;;12.85;;
41653;SDS011;68687;52.030;7.110;2023-11-22T08:18:48;23.05;;;13.95;;
41653;SDS011;68687;52.030;7.110;2023-11-22T08:21:14;22.95;;;13.70;;
41653;SDS011;68687;52.030;7.110;2023-11-22T08:23:39;24.77;;;13.90;;
41653;SDS011;68687;52.030;7.110;2023-11-22T08:26:04;20.30;;;12.85;;
41653;SDS011;68687;52.030;7.110;2023-11-22T08:28:31;20.20;;;12.68;;
41653;SDS011;68687;52.030;7.110;2023-11-22T08:30:59;28.08;;;15.10;;
41653;SDS011;68687;52.030;7.110;2023-11-22T08:33:26;28.08;;;14.32;;
41653;SDS011;68687;52.030;7.110;2023-11-22T08:35:54;30.65;;;16.75;;
41653;SDS011;68687;52.030;7.110;2023-11-22T08:38:24;26.15;;;15.75;;
41653;SDS011;68687;52.030;7.110;2023-11-22T08:40:56;30.20;;;16.75;;
41653;SDS011;68687;52.030;7.110;2023-11-22T08:43:25;30.27;;;16.40;;
41653;SDS011;68687;52.030;7.110;2023-11-22T08:45:50;49.10;;;26.73;;
41653;SDS011;68687;52.030;7.110;2023-11-22T08:48:16;63.50;;;32.88;;
41653;SDS011;68687;52.030;7.110;2023-11-22T08:50:42;51.75;;;28.42;;
41653;SDS011;68687;52.030;7.110;2023-11-22T08:53:09;44.03;;;20.02;;
41653;SDS011;68687;52.030;7.110;2023-11-22T08:55:34;34.50;;;16.88;;
41653;SDS011;68687;52.030;7.110;2023-11-22T08:58:02;33.65;;;17.30;;
41653;SDS011;68687;52.030;7.110;2023-11-22T09:00:27;36.22;;;17.77;;
41653;SDS011;68687;52.030;7.110;2023-11-22T09:02:57;28.98;;;16.95;;
41653;SDS011;68687;52.030;7.110;2023-11-22T09:05:22;25.65;;;14.25;;
41653;SDS011;68687;52.030;7.110;2023-11-22T09:07:47;22.95;;;13.10;;
41653;SDS011;68687;52.030;7.110;2023-11-22T09:10:13;19.50;;;11.63;;
41653;SDS011;68687;52.030;7.110;2023-11-22T09:12:39;16.48;;;10.82;;
41653;SDS011;68687;52.030;7.110;2023-11-22T09:15:09;18.77;;;10.38;;
41653;SDS011;68687;52.030;7.110;2023-11-22T09:17:39;17.92;;;9.73;;
41653;SDS011;68687;52.030;7.110;2023-11-22T09:20:12;15.90;;;9.65;;
41653;SDS011;68687;52.030;7.110;2023-11-22T09:22:42;16.52;;;9.32;;
41653;SDS011;68687;52.030;7.110;2023-11-22T09:25:13;16.92;;;9.48;;
41653;SDS011;68687;52.030;7.110;2023-11-22T09:27:41;14.98;;;9.10;;
41653;SDS011;68687;52.030;7.110;2023-11-22T09:30:07;16.70;;;10.80;;
41653;SDS011;68687;52.030;7.110;2023-11-22T09:32:42;17.48;;;12.55;;
41653;SDS011;68687;52.030;7.110;2023-11-22T09:35:11;20.88;;;12.10;;
41653;SDS011;68687;52.030;7.110;2023-11-22T09:37:39;18.10;;;11.18;;
41653;SDS011;68687;52.030;7.110;2023-11-22T09:40:07;22.63;;;13.70;;
41653;SDS011;68687;52.030;7.110;2023-11-22T09:42:34;30.60;;;17.25;;
41653;SDS011;68687;52.030;7.110;2023-11-22T09:44:59;37.67;;;22.67;;
41653;SDS011;68687;52.030;7.110;2023-11-22T09:47:28;38.00;;;20.80;;
41653;SDS011;68687;52.030;7.110;2023-11-22T09:49:57;24.88;;;14.43;;
41653;SDS011;68687;52.030;7.110;2023-11-22T09:52:25;25.63;;;14.23;;
41653;SDS011;68687;52.030;7.110;2023-11-22T09:54:53;27.08;;;13.30;;
41653;SDS011;68687;52.030;7.110;2023-11-22T09:57:20;23.52;;;12.82;;
41653;SDS011;68687;52.030;7.110;2023-11-22T09:59:52;20.77;;;13.25;;
41653;SDS011;68687;52.030;7.110;2023-11-22T10:02:20;36.47;;;16.67;;
41653;SDS011;68687;52.030;7.110;2023-11-22T10:04:51;23.10;;;14.80;;
41653;SDS011;68687;52.030;7.110;2023-11-22T10:07:22;18.02;;;10.45;;
41653;SDS011;68687;52.030;7.110;2023-11-22T10:09:49;15.98;;;10.13;;
41653;SDS011;68687;52.030;7.110;2023-11-22T10:12:19;15.35;;;9.80;;
41653;SDS011;68687;52.030;7.110;2023-11-22T10:14:47;17.75;;;9.75;;
41653;SDS011;68687;52.030;7.110;2023-11-22T10:17:13;14.80;;;10.52;;
41653;SDS011;68687;52.030;7.110;2023-11-22T10:19:40;15.88;;;9.77;;
41653;SDS011;68687;52.030;7.110;2023-11-22T10:22:06;14.93;;;10.07;;
41653;SDS011;68687;52.030;7.110;2023-11-22T10:24:33;16.08;;;9.75;;
41653;SDS011;68687;52.030;7.110;2023-11-22T10:26:59;15.77;;;9.88;;
41653;SDS011;68687;52.030;7.110;2023-11-22T10:29:25;13.15;;;8.88;;
41653;SDS011;68687;52.030;7.110;2023-11-22T10:31:51;16.55;;;9.77;;
41653;SDS011;68687;52.030;7.110;2023-11-22T10:34:20;13.75;;;9.05;;
41653;SDS011;68687;52.030;7.110;2023-11-22T10:36:49;18.35;;;9.88;;
41653;SDS011;68687;52.030;7.110;2023-11-22T10:39:18;17.02;;;9.02;;
41653;SDS011;68687;52.030;7.110;2023-11-22T10:41:45;16.52;;;9.07;;
41653;SDS011;68687;52.030;7.110;2023-11-22T10:44:11;19.15;;;10.50;;
41653;SDS011;68687;52.030;7.110;2023-11-22T10:46:36;17.48;;;9.55;;
41653;SDS011;68687;52.030;7.110;2023-11-22T10:49:05;22.52;;;10.60;;
41653;SDS011;68687;52.030;7.110;2023-11-22T10:51:31;14.07;;;9.35;;
41653;SDS011;68687;52.030;7.110;2023-11-22T10:53:57;12.98;;;8.77;;
41653;SDS011;68687;52.030;7.110;2023-11-22T10:56:28;20.65;;;9.60;;
41653;SDS011;68687;52.030;7.110;2023-11-22T10:58:56;18.83;;;9.43;;
41653;SDS011;68687;52.030;7.110;2023-11-22T11:01:25;19.00;;;9.18;;
41653;SDS011;68687;52.030;7.110;2023-11-22T11:06:32;13.52;;;8.38;;
41653;SDS011;68687;52.030;7.110;2023-11-22T11:09:00;13.75;;;7.95;;
41653;SDS011;68687;52.030;7.110;2023-11-22T11:11:30;14.68;;;8.32;;
41653;SDS011;68687;52.030;7.110;2023-11-22T11:13:57;12.95;;;7.72;;
41653;SDS011;68687;52.030;7.110;2023-11-22T11:16:23;13.35;;;7.90;;
41653;SDS011;68687;52.030;7.110;2023-11-22T11:18:49;14.57;;;8.30;;
41653;SDS011;68687;52.030;7.110;2023-11-22T11:21:14;15.52;;;9.77;;
41653;SDS011;68687;52.030;7.110;2023-11-22T11:23:40;16.35;;;9.65;;
41653;SDS011;68687;52.030;7.110;2023-11-22T11:26:14;19.17;;;10.38;;
41653;SDS011;68687;52.030;7.110;2023-11-22T11:28:42;19.08;;;9.88;;
41653;SDS011;68687;52.030;7.110;2023-11-22T11:31:15;19.23;;;11.30;;
41653;SDS011;68687;52.030;7.110;2023-11-22T11:36:30;22.20;;;11.95;;
41653;SDS011;68687;52.030;7.110;2023-11-22T11:39:02;14.18;;;9.90;;
41653;SDS011;68687;52.030;7.110;2023-11-22T11:41:33;18.05;;;9.57;;
41653;SDS011;68687;52.030;7.110;2023-11-22T11:44:09;17.67;;;9.50;;
41653;SDS011;68687;52.030;7.110;2023-11-22T11:46:36;19.13;;;8.45;;
41653;SDS011;68687;52.030;7.110;2023-11-22T11:49:05;14.30;;;9.15;;
41653;SDS011;68687;52.030;7.110;2023-11-22T11:51:39;17.42;;;8.00;;
41653;SDS011;68687;52.030;7.110;2023-11-22T11:54:04;18.65;;;9.30;;
41653;SDS011;68687;52.030;7.110;2023-11-22T11:56:33;19.67;;;9.05;;
41653;SDS011;68687;52.030;7.110;2023-11-22T11:58:59;18.13;;;8.73;;
41653;SDS011;68687;52.030;7.110;2023-11-22T12:01:28;14.25;;;9.10;;
41653;SDS011;68687;52.030;7.110;2023-11-22T12:03:57;18.00;;;9.40;;
41653;SDS011;68687;52.030;7.110;2023-11-22T12:06:25;13.55;;;9.02;;
41653;SDS011;68687;52.030;7.110;2023-11-22T12:08:51;14.95;;;8.98;;
41653;SDS011;68687;52.030;7.110;2023-11-22T12:11:20;14.40;;;9.35;;
41653;SDS011;68687;52.030;7.110;2023-11-22T12:13:45;13.75;;;9.77;;
41653;SDS011;68687;52.030;7.110;2023-11-22T12:16:18;14.18;;;8.75;;
41653;SDS011;68687;52.030;7.110;2023-11-22T12:18:43;13.18;;;8.57;;
41653;SDS011;68687;52.030;7.110;2023-11-22T12:21:09;14.73;;;8.48;;
41653;SDS011;68687;52.030;7.110;2023-11-22T12:23:39;11.93;;;8.10;;
41653;SDS011;68687;52.030;7.110;2023-11-22T12:26:09;13.40;;;8.07;;
41653;SDS011;68687;52.030;7.110;2023-11-22T12:28:36;11.77;;;8.38;;
41653;SDS011;68687;52.030;7.110;2023-11-22T12:31:08;11.70;;;9.35;;
41653;SDS011;68687;52.030;7.110;2023-11-22T12:33:37;11.82;;;9.05;;
41653;SDS011;68687;52.030;7.110;2023-11-22T12:36:04;9.32;;;7.85;;
41653;SDS011;68687;52.030;7.110;2023-11-22T12:38:31;9.15;;;7.50;;
41653;SDS011;68687;52.030;7.110;2023-11-22T12:40:56;11.38;;;8.57;;
41653;SDS011;68687;52.030;7.110;2023-11-22T12:43:23;13.43;;;8.20;;
41653;SDS011;68687;52.030;7.110;2023-11-22T12:48:31;16.98;;;10.43;;
41653;SDS011;68687;52.030;7.110;2023-11-22T12:50:58;13.05;;;8.65;;
41653;SDS011;68687;52.030;7.110;2023-11-22T12:53:24;12.60;;;8.18;;
41653;SDS011;68687;52.030;7.110;2023-11-22T12:55:53;9.23;;;8.05;;
41653;SDS011;68687;52.030;7.110;2023-11-22T12:58:21;12.70;;;8.77;;
41653;SDS011;68687;52.030;7.110;2023-11-22T13:00:48;11.20;;;8.32;;
41653;SDS011;68687;52.030;7.110;2023-11-22T13:03:14;16.05;;;7.25;;
41653;SDS011;68687;52.030;7.110;2023-11-22T13:05:41;11.13;;;7.82;;
41653;SDS011;68687;52.030;7.110;2023-11-22T13:08:10;13.52;;;9.05;;
41653;SDS011;68687;52.030;7.110;2023-11-22T13:10:48;13.73;;;8.35;;
41653;SDS011;68687;52.030;7.110;2023-11-22T13:13:19;9.40;;;7.07;;
41653;SDS011;68687;52.030;7.110;2023-11-22T13:15:55;14.43;;;9.68;;
41653;SDS011;68687;52.030;7.110;2023-11-22T13:18:20;12.70;;;8.23;;
41653;SDS011;68687;52.030;7.110;2023-11-22T13:20:49;10.40;;;8.43;;
41653;SDS011;68687;52.030;7.110;2023-11-22T13:23:15;13.88;;;8.38;;
41653;SDS011;68687;52.030;7.110;2023-11-22T13:25:41;11.43;;;8.50;;
41653;SDS011;68687;52.030;7.110;2023-11-22T13:28:06;12.27;;;8.32;;
41653;SDS011;68687;52.030;7.110;2023-11-22T13:30:33;15.50;;;9.45;;
41653;SDS011;68687;52.030;7.110;2023-11-22T13:32:59;13.55;;;8.30;;
41653;SDS011;68687;52.030;7.110;2023-11-22T13:35:30;17.40;;;11.00;;
41653;SDS011;68687;52.030;7.110;2023-11-22T13:37:57;15.02;;;8.80;;
41653;SDS011;68687;52.030;7.110;2023-11-22T13:40:23;19.95;;;12.00;;
41653;SDS011;68687;52.030;7.110;2023-11-22T13:42:50;15.52;;;10.52;;
41653;SDS011;68687;52.030;7.110;2023-11-22T13:45:22;12.88;;;8.35;;
41653;SDS011;68687;52.030;7.110;2023-11-22T13:47:48;14.90;;;9.30;;
41653;SDS011;68687;52.030;7.110;2023-11-22T13:50:23;17.90;;;11.52;;
41653;SDS011;68687;52.030;7.110;2023-11-22T13:52:51;18.50;;;9.70;;
41653;SDS011;68687;52.030;7.110;2023-11-22T13:55:17;20.40;;;9.30;;
41653;SDS011;68687;52.030;7.110;2023-11-22T13:57:48;11.63;;;7.65;;
41653;SDS011;68687;52.030;7.110;2023-11-22T14:00:17;11.93;;;8.55;;
41653;SDS011;68687;52.030;7.110;2023-11-22T14:02:47;15.25;;;8.80;;
41653;SDS011;68687;52.030;7.110;2023-11-22T14:05:13;18.27;;;8.57;;
41653;SDS011;68687;52.030;7.110;2023-11-22T14:07:40;14.65;;;9.20;;
41653;SDS011;68687;52.030;7.110;2023-11-22T14:10:06;13.57;;;9.45;;
41653;SDS011;68687;52.030;7.110;2023-11-22T14:12:32;10.82;;;8.32;;
41653;SDS011;68687;52.030;7.110;2023-11-22T14:14:58;9.73;;;7.68;;
41653;SDS011;68687;52.030;7.110;2023-11-22T14:17:24;10.50;;;7.93;;
41653;SDS011;68687;52.030;7.110;2023-11-22T14:19:50;9.07;;;7.25;;
41653;SDS011;68687;52.030;7.110;2023-11-22T14:22:16;12.45;;;8.35;;
41653;SDS011;68687;52.030;7.110;2023-11-22T14:24:42;10.85;;;7.55;;
41653;SDS011;68687;52.030;7.110;2023-11-22T14:27:10;12.77;;;8.52;;
41653;SDS011;68687;52.030;7.110;2023-11-22T14:29:35;14.95;;;10.20;;
41653;SDS011;68687;52.030;7.110;2023-11-22T14:32:01;18.98;;;11.07;;